Аэропорт: Аулие-Ата. Тараз

ICAO: UADD

METAR:
2019/05/26 14:00
UADD 261400Z 36002MPS 9999 SCT046 BKN100 24/06 Q1019 R13/0///65 NOSIG RMK QFE707/0943
METAR:
2019/01/06 00:06
TAF TAF UADD 052300Z 0500/0609 18005MPS 1000 BR BKN003 OVC020 
      TEMPO 0600/0606 0200 FZFG VV001